Latest Coastal Weather Observations for Neptune Island

IDT60701

Issued at 6:03 am EDT Friday 20 January 2017 (issued every 10 minutes, with the page automatically refreshed every 10 minutes)

About coastal observations | Map of coastal stations | Coastal observations for TAS | Marine services | Other Formats
Station Details ID: 018115 Name: NEPTUNE ISLAND Lat: -35.34 Lon: 136.12 Height: 32.0 m
Data from the previous 72 hours. | See also: Recent months at Neptune Island
Date/Time
EDT
Temp
°C
Wind Pressure Rain since
9am
mm
Weather Cloud Vis
km
Sea
Height
m
Swell
Dir  Spd
kts
Gust
kts
hPa Trend Height
m
Period
s
Dir
20/05:30am 16.8 SSW 24 28 1002.4 - 14.6 - - - - - - -
20/05:00am 16.8 SSW 24 29 1002.1 - 14.6 - - - - - - -
20/04:30am 17.1 SSW 23 28 1001.7 - 14.6 - - - - - - -
20/04:00am 17.1 SW 22 27 1001.6 - 14.6 - - - - - - -
20/03:30am 17.4 SW 22 25 1001.3 - 14.6 - - - - - - -
20/03:00am 17.3 SSW 17 21 1001.2 - 14.6 - - - - - - -
20/02:30am 17.4 SSW 11 13 1000.9 - 14.6 - - - - - - -
20/02:00am 17.4 SSW 11 13 1001.3 - 14.6 - - - - - - -
20/01:30am 17.3 S 7 9 1000.6 - 14.6 - - - - - - -
20/01:00am 17.4 S 8 11 1000.3 - 14.6 - - - - - - -
20/12:30am 17.1 E 8 10 999.5 - 14.6 - - - - - - -
20/12:13am 17.0 ESE 7 13 1000.9 - 14.6 - - - - - - -
20/12:00am 16.8 SE 15 20 998.9 - 14.6 - - - - - - -
 
Date/Time
EDT
Temp
°C
Wind Pressure Rain since
9am
mm
Weather Cloud Vis
km
Sea
Height
m
Swell
Dir  Spd
kts
Gust
kts
hPa Trend Height
m
Period
s
Dir
19/11:30pm 16.7 SE 19 22 999.1 - 14.6 - - - - - - -
19/11:00pm 16.6 SE 23 27 999.7 - 12.4 - - - - - - -
19/10:30pm 16.4 SSE 26 35 1001.4 - 10.6 - - - - - - -
19/10:00pm 16.7 S 32 38 1000.8 - 3.4 - - - - - - -
19/09:30pm 17.5 S 31 36 1000.7 - 0.2 Recent precip. - - - - - -
19/09:00pm 18.3 S 26 31 1001.3 - 0.0 - - - - - - -
19/08:30pm 18.6 SSW 31 38 1000.5 - 0.0 - - - - - - -
19/08:00pm 19.4 SW 27 40 999.4 - 0.0 - - - - - - -
19/07:57pm 19.7 SW 24 39 999.8 - 0.0 - - - - - - -
19/07:55pm 19.8 SW 21 34 999.9 - 0.0 - - - - - - -
19/07:54pm 19.7 SSW 19 27 999.8 - 0.0 - - - - - - -
19/07:30pm 20.3 SSW 15 17 998.0 - 0.0 - - - - - - -
19/07:00pm 21.9 SSE 9 10 997.6 - 0.0 - - - - - - -
19/06:30pm 23.3 ESE 12 14 997.3 - 0.0 - - - - - - -
19/06:00pm 22.8 ESE 13 17 997.4 - 0.0 - - - - - - -
19/05:30pm 22.8 ESE 14 17 997.8 - 0.0 - - - - - - -
19/05:00pm 23.4 E 15 18 998.6 - 0.0 - - - - - - -
19/04:30pm 23.0 E 17 21 999.1 - 0.0 - - - - - - -
19/04:00pm 22.8 E 17 21 1000.4 - 0.0 - - - - - - -
19/03:30pm 22.8 E 18 21 1001.2 - 0.0 - - - - - - -
19/03:00pm 22.4 E 17 21 1002.4 - 0.0 - - - - - - -
19/02:30pm 22.5 E 18 22 1003.2 - 0.0 - - - - - - -
19/02:00pm 22.2 E 18 22 1003.8 - 0.0 - - - - - - -
19/01:30pm 21.9 E 17 21 1004.5 - 0.0 - - - - - - -
19/01:00pm 21.9 E 18 21 1005.2 - 0.0 - - - - - - -
19/12:30pm 21.4 E 16 19 1006.0 - 0.0 - - - - - - -
19/12:00pm 21.6 E 17 20 1006.6 - 0.0 - - - - - - -
19/11:30am 21.4 ESE 16 19 1007.0 - 0.0 - - - - - - -
19/11:00am 21.1 E 15 18 1007.5 - 0.0 - - - - - - -
19/10:30am 19.7 ESE 17 21 1007.3 - 0.0 - - - - - - -
19/10:00am 19.4 E 19 22 1007.4 - 0.0 - - - - - - -
19/09:30am 19.0 ESE 16 20 1007.6 - 0.0 - - - - - - -
19/09:00am 19.1 ESE 15 19 1008.2 - 0.0 - - - - - - -
19/08:30am 18.4 ESE 17 20 1008.3 - 0.0 - - - - - - -
19/08:00am 18.0 ESE 18 23 1008.0 - 0.0 - - - - - - -
19/07:30am 18.0 ESE 19 23 1008.6 - 0.0 - - - - - - -
19/07:00am 17.8 ESE 17 21 1008.6 - 0.0 - - - - - - -
19/06:30am 17.7 ESE 17 21 1008.8 - 0.0 - - - - - - -
19/06:00am 17.3 ESE 18 21 1009.1 - 0.0 - - - - - - -
19/05:30am 17.2 ESE 19 24 1009.2 - 0.0 - - - - - - -
19/05:00am 17.1 ESE 19 23 1009.5 - 0.0 - - - - - - -
19/04:30am 17.0 ESE 19 23 1010.1 - 0.0 - - - - - - -
19/04:00am 16.9 ESE 21 25 1010.0 - 0.0 - - - - - - -
19/03:30am 17.0 ESE 21 24 1010.6 - 0.0 - - - - - - -
19/03:00am 17.1 ESE 20 25 1011.0 - 0.0 - - - - - - -
19/02:30am 16.8 SE 16 20 1011.5 - 0.0 - - - - - - -
19/02:00am 16.9 ESE 17 22 1011.7 - 0.0 - - - - - - -
19/01:30am 16.7 ESE 16 20 1012.3 - 0.0 - - - - - - -
19/01:00am 16.7 SE 17 21 1012.6 - 0.0 - - - - - - -
19/12:30am 16.6 ESE 17 20 1013.2 - 0.0 - - - - - - -
19/12:00am 16.7 ESE 19 23 1013.4 - 0.0 - - - - - - -
 
Date/Time
EDT
Temp
°C
Wind Pressure Rain since
9am
mm
Weather Cloud Vis
km
Sea
Height
m
Swell
Dir  Spd
kts
Gust
kts
hPa Trend Height
m
Period
s
Dir
18/11:30pm 16.7 SE 20 25 1013.6 - 0.0 - - - - - - -
18/11:00pm 16.9 SE 21 26 1013.5 - 0.0 - - - - - - -
18/10:30pm 17.3 SE 21 26 1013.5 - 0.0 - - - - - - -
18/10:00pm 17.6 SE 21 25 1013.7 - 0.0 - - - - - - -
18/09:30pm 17.8 SE 19 23 1013.6 - 0.0 - - - - - - -
18/09:00pm 18.3 SE 19 23 1013.7 - 0.0 - - - - - - -
18/08:30pm 18.6 SE 19 23 1013.7 - 0.0 - - - - - - -
18/08:00pm 19.0 SE 17 22 1013.8 - 0.0 - - - - - - -
18/07:30pm 19.0 SE 18 23 1013.8 - 0.0 - - - - - - -
18/07:00pm 19.2 SE 19 23 1013.7 - 0.0 - - - - - - -
18/06:30pm 19.5 SE 17 22 1013.9 - 0.0 - - - - - - -
18/06:00pm 19.8 SSE 17 22 1014.1 - 0.0 - - - - - - -
18/05:30pm 19.9 SE 19 22 1014.2 - 0.0 - - - - - - -
18/05:00pm 20.1 SE 19 24 1014.1 - 0.0 - - - - - - -
18/04:30pm 21.0 SE 16 19 1014.4 - 0.0 - - - - - - -
18/04:00pm 21.3 SE 13 16 1014.6 - 0.0 - - - - - - -
18/03:30pm 20.6 SE 15 18 1014.9 - 0.0 - - - - - - -
18/03:00pm 21.1 SE 16 19 1015.1 - 0.0 - - - - - - -
18/02:30pm 20.3 SE 17 20 1015.4 - 0.0 - - - - - - -
18/02:00pm 19.8 SE 15 20 1015.9 - 0.0 - - - - - - -
18/01:30pm 19.7 SE 14 18 1016.3 - 0.0 - - - - - - -
18/01:00pm 19.7 SE 15 19 1016.3 - 0.0 - - - - - - -
18/12:30pm 19.4 SE 15 19 1016.6 - 0.0 - - - - - - -
18/12:00pm 19.4 SE 16 19 1016.9 - 0.0 - - - - - - -
18/11:30am 18.9 SE 16 18 1017.0 - 0.0 - - - - - - -
18/11:00am 18.1 SE 15 19 1017.2 - 0.0 - - - - - - -
18/10:30am 18.1 SE 15 19 1017.1 - 0.0 - - - - - - -
18/10:00am 17.9 SE 15 18 1016.8 - 0.0 - - - - - - -
18/09:30am 17.5 SE 18 22 1016.2 - 0.0 - - - - - - -
18/09:00am 17.4 SE 19 23 1016.1 - 0.0 - - - - - - -
18/08:30am 17.3 SE 20 24 1015.9 - 0.0 - - - - - - -
18/08:00am 17.0 SE 21 26 1015.1 - 0.0 - - - - - - -
18/07:30am 16.7 SE 21 25 1014.8 - 0.0 - - - - - - -
18/07:00am 16.7 SSE 22 28 1014.9 - 0.0 - - - - - - -
18/06:30am 16.6 SSE 24 28 1013.8 - 0.0 - - - - - - -
18/06:00am 16.5 SSE 22 28 1013.6 - 0.0 - - - - - - -
18/05:30am 16.4 SSE 21 25 1013.2 - 0.0 - - - - - - -
18/05:00am 16.3 SSE 21 27 1012.9 - 0.0 - - - - - - -
18/04:30am 16.5 SSE 20 25 1012.7 - 0.0 - - - - - - -
18/04:00am 16.7 SSE 20 26 1012.3 - 0.0 - - - - - - -
18/03:30am 16.7 SSE 21 25 1012.5 - 0.0 - - - - - - -
18/03:00am 17.1 SSE 21 25 1012.1 - 0.0 - - - - - - -
18/02:30am 17.0 SSE 22 27 1011.8 - 0.0 - - - - - - -
18/02:00am 17.3 SSE 22 29 1011.9 - 0.0 - - - - - - -
18/01:30am 17.3 SSE 23 28 1012.1 - 0.0 - - - - - - -
18/01:00am 17.8 SSE 21 25 1012.3 - 0.0 - - - - - - -
18/12:30am 18.2 SSE 19 23 1012.4 - 0.0 - - - - - - -
18/12:00am 18.3 SSE 20 25 1012.3 - 0.0 - - - - - - -
 
Date/Time
EDT
Temp
°C
Wind Pressure Rain since
9am
mm
Weather Cloud Vis
km
Sea
Height
m
Swell
Dir  Spd
kts
Gust
kts
hPa Trend Height
m
Period
s
Dir
17/11:30pm 18.1 SE 21 28 1012.2 - 0.0 - - - - - - -
17/11:00pm 18.3 SSE 23 29 1012.3 - 0.0 - - - - - - -
17/10:30pm 18.2 SSE 23 28 1012.0 - 0.0 - - - - - - -
17/10:00pm 18.4 SSE 23 28 1012.0 - 0.0 - - - - - - -
17/09:30pm 18.7 SSE 25 31 1011.1 - 0.0 - - - - - - -
17/09:00pm 19.0 SSE 25 31 1010.0 - 0.0 - - - - - - -
17/08:30pm 19.0 SE 30 36 1008.3 - 0.0 - - - - - - -
17/08:00pm 19.0 SSE 29 37 1008.9 - 0.0 - - - - - - -
17/07:30pm 19.2 S 34 43 1009.4 - 0.0 - - - - - - -
17/07:04pm 19.1 S 35 49 1009.2 - 0.0 - - - - - - -
17/07:00pm 19.4 S 35 44 1009.3 - 0.0 - - - - - - -
17/06:35pm 19.3 S 34 45 1008.6 - 0.0 - - - - - - -
17/06:30pm 19.6 S 35 44 1008.3 - 0.0 - - - - - - -
17/06:08pm 19.6 S 33 44 1007.9 - 0.0 - - - - - - -
17/06:00pm 19.8 S 34 43 1007.4 - 0.0 - - - - - - -
17/05:30pm 20.5 SSW 32 38 1007.0 - 0.0 - - - - - - -
17/05:16pm 21.9 SSW 27 34 1006.8 - 0.0 - - - - - - -
17/05:00pm 22.7 S 20 24 1006.6 - 0.0 - - - - - - -
17/04:30pm 23.7 S 17 21 1006.3 - 0.0 - - - - - - -
17/04:00pm 23.1 S 15 17 1005.9 - 0.0 - - - - - - -
17/03:30pm 24.0 S 11 12 1005.9 - 0.0 - - - - - - -
17/03:00pm 22.7 SSW 12 13 1006.0 - 0.0 - - - - - - -
17/02:30pm 22.7 SSW 10 11 1006.3 - 0.0 - - - - - - -
17/02:00pm 24.0 SW 5 7 1006.5 - 0.0 - - - - - - -
17/01:30pm 23.7 WSW 6 9 1006.3 - 0.0 - - - - - - -
17/01:00pm 26.0 WNW 7 9 1006.5 - 0.0 - - - - - - -
17/12:30pm 24.3 NNE 6 8 1006.5 - 0.0 - - - - - - -
17/12:00pm 23.8 NNE 7 9 1006.3 - 0.0 - - - - - - -
17/11:30am 23.7 NE 7 10 1006.4 - 0.0 - - - - - - -
17/11:00am 23.3 NE 7 9 1006.4 - 0.0 - - - - - - -
17/10:30am 23.1 NE 8 10 1006.4 - 0.0 - - - - - - -
17/10:00am 23.1 NE 8 10 1006.3 - 0.0 - - - - - - -
17/09:30am 22.7 NE 8 9 1006.4 - 0.0 - - - - - - -
17/09:00am 22.0 NNE 11 12 1006.3 - 0.0 - - - - - - -
17/08:30am 21.2 NNE 9 11 1006.0 - 0.0 - - - - - - -
17/08:00am 21.3 NE 9 12 1005.8 - 0.0 - - - - - - -
17/07:30am 21.0 NE 9 12 1005.7 - 0.0 - - - - - - -
17/07:00am 21.1 NE 9 13 1005.4 - 0.0 - - - - - - -

Other Formats:

Comma delimited format used in spreadsheet applications
http://www.bom.gov.au/fwo/IDT60701/IDT60701.94804.axf

JavaScript Object Notation format (JSON) in row-major order
http://www.bom.gov.au/fwo/IDT60701/IDT60701.94804.json